METAR AND TAF INFORMATION

METAR FOR TNCC
ADDS - METARS form results

(1600 UTC 21 May 2022)
Data provider http://aviationweather.gov/metar/data/
 
Forecast for: TNCC (HATO AIR CURACAO, CW)
Text: TAF TNCC 211115Z 2112/2212 09014KT 9999 SCT022
Forecast period: 1200 UTC 21 May 2022 to 1200 UTC 22 May 2022
Forecast type: FROM: standard forecast or significant change
Winds: from the E (90 degrees) at 16 MPH (14 knots; 7.2 m/s)
Visibility: 6 or more miles (10+ km)
Ceiling: at least 12,000 feet AGL
Clouds: scattered clouds at 2200 feet AGL
Weather: no significant weather forecast for this period

 

AIRPORT MAP

 

RUNWAY INFORMATION

Runway 11 Runway length 11188 ft Runway width 197 ft
Runway elevation 25 ft Runway displaced threshold 2723 ft Runway heading 102
Runway 29 Runway length 11188 ft Runway width 197 ft
Runway elevation 29 ft Runway displaced threshold 0 ft Runway heading 282

 

AIRPORT FREQUENCIES

Type APP Name APP Frequency 119.6 MHZ
Type MISC Name CATS SVC Frequency 131.8 MHZ
Type OPS Name DUTCH OPS Frequency 24.02 MHZ
Type POST Name IGUANA OPS Frequency 25 MHZ
Type TWR Name TWR Frequency 118.3 MHZ

 

AIRPORT NEAR NAVIGATION AIDS

Type TACAN Name Hato Frequency 134100 KHZ
Type VOR-DME Name Curacao Frequency 116700 KHZ